sensor_id;sensor_type;location;lat;lon;timestamp;pressure;altitude;pressure_sealevel;temperature;humidity
50040;BME280;44598;51.606;5.912;2023-01-19T00:15:19;99800;;;2.3;93.9
50040;BME280;44598;51.606;5.912;2023-01-19T00:28:39;99800;;;2.5;93.6
50040;BME280;44598;51.606;5.912;2023-01-19T00:55:18;99800;;;2.7;93.7
50040;BME280;44598;51.606;5.912;2023-01-19T01:08:38;99800;;;2.7;93.9
50040;BME280;44598;51.606;5.912;2023-01-19T01:21:58;99800;;;2.7;94.0
50040;BME280;44598;51.606;5.912;2023-01-19T01:35:18;99800;;;2.7;93.9
50040;BME280;44598;51.606;5.912;2023-01-19T01:48:37;99800;;;2.7;93.7
50040;BME280;44598;51.606;5.912;2023-01-19T02:15:17;99800;;;2.7;93.4
50040;BME280;44598;51.606;5.912;2023-01-19T02:28:37;99800;;;2.7;93.9
50040;BME280;44598;51.606;5.912;2023-01-19T02:41:57;99800;;;2.7;94.9
50040;BME280;44598;51.606;5.912;2023-01-19T02:55:17;99800;;;2.6;95.7
50040;BME280;44598;51.606;5.912;2023-01-19T03:08:36;99800;;;2.4;96.3
50040;BME280;44598;51.606;5.912;2023-01-19T03:21:56;99800;;;2.2;96.7
50040;BME280;44598;51.606;5.912;2023-01-19T03:35:16;99800;;;2.0;97.2
50040;BME280;44598;51.606;5.912;2023-01-19T03:48:36;99800;;;1.9;97.4
50040;BME280;44598;51.606;5.912;2023-01-19T04:01:56;99800;;;1.9;97.3
50040;BME280;44598;51.606;5.912;2023-01-19T04:15:15;99900;;;1.8;97.4
50040;BME280;44598;51.606;5.912;2023-01-19T04:28:35;99900;;;1.7;97.5
50040;BME280;44598;51.606;5.912;2023-01-19T04:41:55;99900;;;1.7;97.6
50040;BME280;44598;51.606;5.912;2023-01-19T04:55:15;99900;;;1.6;97.7
50040;BME280;44598;51.606;5.912;2023-01-19T05:08:35;99900;;;1.6;97.8
50040;BME280;44598;51.606;5.912;2023-01-19T05:21:55;99900;;;1.6;97.9
50040;BME280;44598;51.606;5.912;2023-01-19T05:35:14;99900;;;1.6;97.9
50040;BME280;44598;51.606;5.912;2023-01-19T05:48:34;99900;;;1.7;97.9
50040;BME280;44598;51.606;5.912;2023-01-19T06:01:54;99900;;;1.7;97.9
50040;BME280;44598;51.606;5.912;2023-01-19T06:15:14;99900;;;1.7;97.8
50040;BME280;44598;51.606;5.912;2023-01-19T06:28:34;99900;;;1.7;97.7
50040;BME280;44598;51.606;5.912;2023-01-19T06:41:53;100000;;;1.7;97.6
50040;BME280;44598;51.606;5.912;2023-01-19T06:55:13;100000;;;1.8;97.4
50040;BME280;44598;51.606;5.912;2023-01-19T07:21:53;100000;;;1.9;97.2
50040;BME280;44598;51.606;5.912;2023-01-19T07:35:13;100000;;;1.9;97.3
50040;BME280;44598;51.606;5.912;2023-01-19T08:28:32;100100;;;2.0;97.5
50040;BME280;44598;51.606;5.912;2023-01-19T08:41:52;100100;;;2.1;97.4
50040;BME280;44598;51.606;5.912;2023-01-19T08:55:12;100100;;;2.2;97.3
50040;BME280;44598;51.606;5.912;2023-01-19T09:08:31;100100;;;2.2;97.4
50040;BME280;44598;51.606;5.912;2023-01-19T09:21:51;100200;;;2.2;97.5
50040;BME280;44598;51.606;5.912;2023-01-19T09:35:11;100200;;;2.3;97.5
50040;BME280;44598;51.606;5.912;2023-01-19T09:48:31;100200;;;2.5;96.9
50040;BME280;44598;51.606;5.912;2023-01-19T10:01:51;100200;;;2.5;96.8
50040;BME280;44598;51.606;5.912;2023-01-19T10:15:11;100200;;;2.5;97.2
50040;BME280;44598;51.606;5.912;2023-01-19T10:28:30;100200;;;2.5;97.3
50040;BME280;44598;51.606;5.912;2023-01-19T10:55:10;100300;;;2.8;96.9
50040;BME280;44598;51.606;5.912;2023-01-19T11:08:30;100300;;;3.0;96.7
50040;BME280;44598;51.606;5.912;2023-01-19T11:21:50;100300;;;3.1;96.5
50040;BME280;44598;51.606;5.912;2023-01-19T11:35:10;100300;;;3.3;96.5
50040;BME280;44598;51.606;5.912;2023-01-19T11:48:29;100300;;;3.5;96.3
50040;BME280;44598;51.606;5.912;2023-01-19T12:01:49;100300;;;3.8;95.7
50040;BME280;44598;51.606;5.912;2023-01-19T12:28:29;100300;;;4.4;93.7
50040;BME280;44598;51.606;5.912;2023-01-19T12:41:48;100200;;;4.5;93.2
50040;BME280;44598;51.606;5.912;2023-01-19T12:55:08;100300;;;4.7;93.1
50040;BME280;44598;51.606;5.912;2023-01-19T13:08:28;100300;;;4.8;92.3
50040;BME280;44598;51.606;5.912;2023-01-19T13:21:48;100200;;;5.0;91.0
50040;BME280;44598;51.606;5.912;2023-01-19T13:35:08;100200;;;5.1;91.3
50040;BME280;44598;51.606;5.912;2023-01-19T13:48:27;100200;;;5.1;90.8
50040;BME280;44598;51.606;5.912;2023-01-19T14:15:07;100300;;;5.2;90.7
50040;BME280;44598;51.606;5.912;2023-01-19T14:28:27;100300;;;5.3;90.5
50040;BME280;44598;51.606;5.912;2023-01-19T14:41:47;100300;;;5.2;90.1
50040;BME280;44598;51.606;5.912;2023-01-19T14:55:06;100300;;;5.0;91.3
50040;BME280;44598;51.606;5.912;2023-01-19T15:08:26;100300;;;4.7;92.5
50040;BME280;44598;51.606;5.912;2023-01-19T15:21:46;100300;;;4.5;92.6
50040;BME280;44598;51.606;5.912;2023-01-19T15:35:06;100300;;;4.2;93.1
50040;BME280;44598;51.606;5.912;2023-01-19T15:48:26;100300;;;4.1;93.2
50040;BME280;44598;51.606;5.912;2023-01-19T16:15:05;100400;;;3.9;93.1
50040;BME280;44598;51.606;5.912;2023-01-19T16:28:25;100400;;;3.7;93.3
50040;BME280;44598;51.606;5.912;2023-01-19T16:55:05;100400;;;3.3;94.1
50040;BME280;44598;51.606;5.912;2023-01-19T17:08:25;100400;;;3.1;94.0
50040;BME280;44598;51.606;5.912;2023-01-19T17:21:44;100400;;;3.0;93.7
50040;BME280;44598;51.606;5.912;2023-01-19T17:35:04;100400;;;2.9;93.6
50040;BME280;44598;51.606;5.912;2023-01-19T18:01:44;100400;;;2.4;94.5
50040;BME280;44598;51.606;5.912;2023-01-19T18:28:24;100400;;;2.0;95.1
50040;BME280;44598;51.606;5.912;2023-01-19T18:41:43;100400;;;1.8;94.9
50040;BME280;44598;51.606;5.912;2023-01-19T18:55:03;100400;;;1.6;95.3
50040;BME280;44598;51.606;5.912;2023-01-19T19:08:23;100400;;;1.4;96.0
50040;BME280;44598;51.606;5.912;2023-01-19T19:21:43;100500;;;1.3;96.0
50040;BME280;44598;51.606;5.912;2023-01-19T19:48:22;100500;;;1.1;95.5
50040;BME280;44598;51.606;5.912;2023-01-19T20:01:42;100500;;;0.9;95.6
50040;BME280;44598;51.606;5.912;2023-01-19T20:15:02;100500;;;0.8;95.9
50040;BME280;44598;51.606;5.912;2023-01-19T20:28:22;100500;;;0.7;96.1
50040;BME280;44598;51.606;5.912;2023-01-19T20:41:42;100500;;;0.6;96.1
50040;BME280;44598;51.606;5.912;2023-01-19T20:55:01;100600;;;0.6;96.1
50040;BME280;44598;51.606;5.912;2023-01-19T21:08:21;100600;;;0.5;96.3
50040;BME280;44598;51.606;5.912;2023-01-19T21:35:01;100600;;;0.5;96.6
50040;BME280;44598;51.606;5.912;2023-01-19T21:48:21;100600;;;0.7;96.8
50040;BME280;44598;51.606;5.912;2023-01-19T22:01:40;100600;;;0.9;96.5
50040;BME280;44598;51.606;5.912;2023-01-19T22:15:00;100700;;;1.1;96.3
50040;BME280;44598;51.606;5.912;2023-01-19T22:28:20;100700;;;1.3;96.3
50040;BME280;44598;51.606;5.912;2023-01-19T22:41:40;100700;;;1.3;96.6
50040;BME280;44598;51.606;5.912;2023-01-19T22:55:00;100700;;;1.4;96.7
50040;BME280;44598;51.606;5.912;2023-01-19T23:21:39;100700;;;1.7;96.5
50040;BME280;44598;51.606;5.912;2023-01-19T23:34:59;100700;;;1.8;96.3
50040;BME280;44598;51.606;5.912;2023-01-19T23:48:19;100700;;;1.9;96.0
